createdAt,value
2022-08-14T00:02:31.468Z,29.37
2022-08-14T00:04:59.870Z,29.30
2022-08-14T00:07:28.702Z,29.30
2022-08-14T00:10:49.762Z,29.24
2022-08-14T00:12:56.325Z,29.18
2022-08-14T00:15:43.435Z,29.11
2022-08-14T00:19:06.619Z,29.07
2022-08-14T00:21:44.791Z,29.10
2022-08-14T00:24:13.429Z,28.99
2022-08-14T00:26:56.118Z,29.07
2022-08-14T00:29:27.264Z,29.10
2022-08-14T00:31:56.452Z,29.11
2022-08-14T00:34:37.188Z,29.13
2022-08-14T00:37:16.836Z,29.10
2022-08-14T00:39:45.628Z,29.11
2022-08-14T00:42:52.541Z,29.12
2022-08-14T00:45:05.611Z,29.04
2022-08-14T00:47:43.120Z,29.10
2022-08-14T00:50:18.983Z,29.06
2022-08-14T00:52:53.210Z,29.08
2022-08-14T00:55:22.458Z,29.09
2022-08-14T00:58:12.697Z,29.11
2022-08-14T01:00:47.592Z,29.12
2022-08-14T01:03:24.180Z,29.14
2022-08-14T01:05:54.816Z,29.14
2022-08-14T01:08:52.235Z,29.15
2022-08-14T01:11:20.696Z,29.12
2022-08-14T01:13:56.102Z,29.14
2022-08-14T01:16:31.863Z,29.16
2022-08-14T01:19:19.819Z,29.15
2022-08-14T01:21:53.147Z,29.15
2022-08-14T01:24:30.961Z,29.16
2022-08-14T01:27:07.057Z,29.10
2022-08-14T01:29:59.216Z,29.13
2022-08-14T01:32:26.843Z,29.13
2022-08-14T01:35:19.270Z,29.08
2022-08-14T01:37:56.427Z,29.03
2022-08-14T01:40:37.214Z,29.02
2022-08-14T01:43:18.634Z,28.99
2022-08-14T01:46:06.196Z,29.05
2022-08-14T01:48:37.529Z,28.95
2022-08-14T01:51:19.297Z,29.00
2022-08-14T01:53:55.617Z,29.01
2022-08-14T01:56:41.560Z,28.99
2022-08-14T01:59:22.995Z,29.03
2022-08-14T02:01:59.135Z,29.02
2022-08-14T02:04:56.059Z,29.02
2022-08-14T02:07:34.703Z,28.95
2022-08-14T02:10:13.152Z,28.90
2022-08-14T02:12:54.100Z,28.84
2022-08-14T02:15:26.758Z,28.79
2022-08-14T02:17:55.317Z,28.78
2022-08-14T02:20:24.896Z,28.77
2022-08-14T02:22:54.550Z,28.66
2022-08-14T02:25:23.276Z,28.64
2022-08-14T02:28:22.670Z,28.49
2022-08-14T02:30:48.423Z,28.50
2022-08-14T02:33:29.544Z,28.41
2022-08-14T02:37:03.949Z,28.42
2022-08-14T02:39:04.960Z,28.34
2022-08-14T02:41:39.021Z,28.36
2022-08-14T02:44:11.986Z,28.30
2022-08-14T02:46:41.443Z,28.34
2022-08-14T02:49:12.027Z,28.35
2022-08-14T02:51:41.827Z,28.35
2022-08-14T02:54:13.137Z,28.33
2022-08-14T02:57:16.344Z,28.31
2022-08-14T02:59:43.259Z,28.22
2022-08-14T03:02:24.576Z,28.27
2022-08-14T03:05:01.736Z,28.27
2022-08-14T03:07:29.972Z,28.17
2022-08-14T03:10:26.899Z,28.23
2022-08-14T03:12:46.570Z,28.09
2022-08-14T03:15:15.865Z,27.97
2022-08-14T03:17:56.327Z,27.95
2022-08-14T03:20:30.735Z,27.84
2022-08-14T03:23:03.159Z,27.68
2022-08-14T03:25:37.802Z,27.77
2022-08-14T03:28:32.865Z,27.75
2022-08-14T03:31:02.222Z,27.70
2022-08-14T03:33:37.472Z,27.72
2022-08-14T03:37:50.995Z,27.68
2022-08-14T03:39:14.961Z,27.61
2022-08-14T03:41:51.961Z,27.58
2022-08-14T03:45:26.903Z,27.50
2022-08-14T03:47:08.433Z,27.56
2022-08-14T03:49:42.119Z,27.59
2022-08-14T03:52:38.453Z,27.64
2022-08-14T03:55:09.050Z,27.62
2022-08-14T03:57:37.556Z,27.68
2022-08-14T04:00:40.644Z,27.70
2022-08-14T04:03:10.061Z,27.72
2022-08-14T04:06:03.547Z,27.57
2022-08-14T04:08:40.157Z,27.64
2022-08-14T04:11:11.010Z,27.50
2022-08-14T04:13:42.685Z,27.53
2022-08-14T04:16:15.977Z,27.50
2022-08-14T04:18:51.392Z,27.48
2022-08-14T04:21:23.488Z,27.55
2022-08-14T04:23:57.351Z,27.54
2022-08-14T04:26:42.409Z,27.56
2022-08-14T04:29:15.574Z,27.62
2022-08-14T04:32:57.599Z,27.61
2022-08-14T04:34:35.345Z,27.68
2022-08-14T04:37:26.501Z,27.70
2022-08-14T04:40:15.035Z,27.70
2022-08-14T04:43:01.856Z,27.72
2022-08-14T04:45:39.345Z,27.63
2022-08-14T04:48:36.626Z,27.46
2022-08-14T04:51:03.829Z,27.42
2022-08-14T04:53:35.672Z,27.42
2022-08-14T04:56:10.619Z,27.34
2022-08-14T04:59:03.696Z,27.26
2022-08-14T05:01:34.012Z,27.39
2022-08-14T05:04:16.367Z,27.18
2022-08-14T05:06:49.445Z,26.88
2022-08-14T05:09:17.965Z,26.81
2022-08-14T05:11:46.728Z,27.03
2022-08-14T05:14:43.359Z,27.21
2022-08-14T05:17:06.927Z,27.28
2022-08-14T05:19:44.339Z,27.26
2022-08-14T05:22:22.877Z,27.21
2022-08-14T05:24:55.236Z,27.22
2022-08-14T05:27:24.090Z,27.30
2022-08-14T05:29:56.658Z,27.30
2022-08-14T05:32:28.463Z,27.38
2022-08-14T05:34:58.933Z,27.34
2022-08-14T05:37:29.881Z,27.41
2022-08-14T05:40:00.608Z,27.45
2022-08-14T05:42:38.360Z,27.50
2022-08-14T05:45:11.303Z,27.58
2022-08-14T05:47:42.893Z,27.66
2022-08-14T05:50:17.243Z,27.72
2022-08-14T05:52:48.694Z,27.78
2022-08-14T05:55:16.717Z,27.91
2022-08-14T05:57:54.283Z,27.80
2022-08-14T06:00:28.899Z,27.88
2022-08-14T06:03:07.040Z,27.96
2022-08-14T06:05:38.728Z,28.09
2022-08-14T06:08:08.753Z,28.20
2022-08-14T06:10:58.125Z,28.22
2022-08-14T06:13:31.511Z,28.25
2022-08-14T06:16:09.192Z,28.37
2022-08-14T06:18:36.674Z,28.41
2022-08-14T06:21:06.246Z,28.46
2022-08-14T06:23:41.563Z,28.54
2022-08-14T06:26:10.869Z,28.63
2022-08-14T06:28:40.421Z,28.69
2022-08-14T06:31:13.417Z,28.73
2022-08-14T06:35:03.877Z,28.81
2022-08-14T06:36:29.994Z,28.93
2022-08-14T06:38:57.884Z,29.09
2022-08-14T06:41:56.882Z,29.19
2022-08-14T06:44:14.300Z,29.32
2022-08-14T06:46:42.478Z,29.37
2022-08-14T06:49:34.320Z,29.43
2022-08-14T06:52:32.415Z,29.54
2022-08-14T06:55:00.335Z,29.60
2022-08-14T06:57:49.826Z,29.63
2022-08-14T07:00:36.313Z,29.64
2022-08-14T07:03:30.775Z,29.70
2022-08-14T07:05:59.682Z,29.82
2022-08-14T07:08:31.369Z,29.96
2022-08-14T07:11:01.663Z,30.02
2022-08-14T07:13:30.732Z,30.04
2022-08-14T07:16:00.653Z,30.02
2022-08-14T07:18:35.676Z,30.02
2022-08-14T07:21:05.979Z,29.99
2022-08-14T07:23:40.214Z,29.99
2022-08-14T07:26:20.243Z,30.03
2022-08-14T07:28:47.924Z,30.00
2022-08-14T07:31:17.410Z,30.05
2022-08-14T07:33:50.106Z,30.07
2022-08-14T07:36:27.699Z,30.12
2022-08-14T07:39:00.435Z,30.27
2022-08-14T07:41:33.472Z,30.42
2022-08-14T07:44:28.708Z,30.44
2022-08-14T07:46:51.001Z,30.50
2022-08-14T07:49:19.841Z,30.48
2022-08-14T07:51:49.673Z,30.51
2022-08-14T07:54:23.420Z,30.54
2022-08-14T07:56:59.850Z,30.60
2022-08-14T07:59:40.830Z,30.69
2022-08-14T08:02:19.721Z,30.77
2022-08-14T08:04:59.021Z,30.93
2022-08-14T08:07:32.365Z,31.06
2022-08-14T08:10:46.761Z,31.19
2022-08-14T08:13:23.933Z,31.35
2022-08-14T08:15:58.353Z,31.47
2022-08-14T08:18:29.074Z,31.69
2022-08-14T08:20:59.327Z,31.82
2022-08-14T08:23:40.374Z,31.85
2022-08-14T08:26:11.337Z,31.86
2022-08-14T08:28:43.917Z,31.73
2022-08-14T08:31:13.167Z,31.75
2022-08-14T08:33:49.432Z,31.84
2022-08-14T08:36:18.636Z,31.91
2022-08-14T08:39:18.418Z,31.90
2022-08-14T08:41:53.272Z,31.82
2022-08-14T08:44:32.156Z,31.74
2022-08-14T08:47:06.943Z,31.86
2022-08-14T08:49:48.707Z,32.02
2022-08-14T08:52:46.988Z,32.16
2022-08-14T08:55:48.439Z,32.32
2022-08-14T08:58:25.057Z,32.44
2022-08-14T09:00:57.050Z,32.61
2022-08-14T09:03:28.843Z,32.53
2022-08-14T09:06:03.430Z,32.73
2022-08-14T09:08:34.054Z,32.89
2022-08-14T09:11:19.233Z,32.98
2022-08-14T09:13:54.568Z,33.00
2022-08-14T09:16:26.086Z,33.20
2022-08-14T09:18:58.096Z,33.27
2022-08-14T09:21:31.245Z,33.15
2022-08-14T09:24:28.314Z,33.17
2022-08-14T09:26:51.985Z,33.24
2022-08-14T09:29:29.615Z,33.22
2022-08-14T09:32:04.019Z,33.34
2022-08-14T09:35:18.171Z,33.31
2022-08-14T09:38:19.517Z,33.10
2022-08-14T09:41:12.305Z,33.01
2022-08-14T09:43:49.095Z,33.00
2022-08-14T09:46:21.358Z,33.02
2022-08-14T09:49:16.556Z,33.00
2022-08-14T09:51:58.414Z,33.20
2022-08-14T09:54:38.853Z,33.37
2022-08-14T09:57:09.017Z,33.51
2022-08-14T09:59:47.020Z,33.51
2022-08-14T10:02:29.099Z,33.66
2022-08-14T10:05:08.810Z,33.62
2022-08-14T10:07:58.942Z,33.79
2022-08-14T10:10:36.862Z,33.93
2022-08-14T10:13:10.022Z,34.10
2022-08-14T10:15:47.492Z,34.18
2022-08-14T10:18:19.204Z,34.35
2022-08-14T10:20:58.103Z,34.50
2022-08-14T10:23:33.655Z,34.55
2022-08-14T10:26:08.811Z,34.59
2022-08-14T10:29:17.672Z,34.74
2022-08-14T10:31:49.114Z,34.70
2022-08-14T10:34:33.365Z,34.84
2022-08-14T10:37:14.423Z,34.91
2022-08-14T10:40:01.943Z,34.79
2022-08-14T10:42:46.612Z,34.82
2022-08-14T10:45:23.187Z,34.99
2022-08-14T10:48:08.802Z,35.05
2022-08-14T10:50:46.597Z,34.98
2022-08-14T10:53:15.657Z,34.85
2022-08-14T10:55:45.289Z,34.86
2022-08-14T10:58:17.133Z,34.79
2022-08-14T11:00:57.078Z,34.73
2022-08-14T11:03:56.737Z,34.62
2022-08-14T11:06:25.402Z,34.62
2022-08-14T11:08:55.572Z,34.75
2022-08-14T11:11:28.719Z,34.69
2022-08-14T11:14:09.463Z,34.55
2022-08-14T11:16:41.322Z,34.70
2022-08-14T11:19:24.989Z,34.60
2022-08-14T11:21:56.066Z,34.66
2022-08-14T11:24:54.214Z,34.60
2022-08-14T11:27:20.370Z,34.64
2022-08-14T11:29:52.808Z,34.62
2022-08-14T11:32:31.636Z,34.75
2022-08-14T11:35:04.573Z,34.62
2022-08-14T11:37:40.804Z,34.71
2022-08-14T11:40:19.939Z,34.82
2022-08-14T11:42:59.607Z,34.69
2022-08-14T11:45:33.648Z,34.85
2022-08-14T11:49:02.736Z,34.71
2022-08-14T11:51:14.830Z,34.77
2022-08-14T11:53:53.080Z,34.78
2022-08-14T11:56:25.591Z,34.87
2022-08-14T11:58:58.622Z,34.90
2022-08-14T12:01:29.350Z,34.99
2022-08-14T12:04:31.881Z,35.00
2022-08-14T12:07:04.617Z,35.03
2022-08-14T12:09:34.530Z,35.08
2022-08-14T12:12:35.216Z,35.15
2022-08-14T12:15:07.056Z,35.10
2022-08-14T12:17:50.651Z,35.16
2022-08-14T12:20:34.229Z,35.14
2022-08-14T12:23:05.314Z,35.19
2022-08-14T12:25:34.621Z,35.19
2022-08-14T12:28:27.308Z,35.09
2022-08-14T12:31:00.070Z,34.98
2022-08-14T12:33:33.775Z,34.97
2022-08-14T12:36:12.316Z,35.04
2022-08-14T12:38:54.244Z,35.10
2022-08-14T12:41:28.236Z,35.19
2022-08-14T12:44:05.292Z,35.25
2022-08-14T12:46:37.369Z,35.34
2022-08-14T12:49:16.201Z,35.38
2022-08-14T12:51:45.053Z,35.38
2022-08-14T12:54:27.416Z,35.30
2022-08-14T12:57:19.412Z,35.36
2022-08-14T12:59:50.664Z,35.38
2022-08-14T13:02:26.864Z,35.33
2022-08-14T13:04:56.820Z,35.28
2022-08-14T13:07:32.685Z,35.25
2022-08-14T13:10:47.444Z,35.08
2022-08-14T13:13:13.548Z,35.19
2022-08-14T13:15:47.156Z,35.20
2022-08-14T13:18:17.989Z,35.15
2022-08-14T13:20:51.469Z,35.09
2022-08-14T13:23:30.551Z,35.00
2022-08-14T13:26:10.184Z,34.98
2022-08-14T13:29:02.493Z,34.92
2022-08-14T13:31:34.304Z,34.91
2022-08-14T13:34:04.466Z,34.88
2022-08-14T13:36:51.735Z,34.85
2022-08-14T13:39:22.832Z,34.97
2022-08-14T13:41:55.588Z,35.08
2022-08-14T13:44:27.812Z,35.04
2022-08-14T13:46:55.061Z,35.07
2022-08-14T13:49:24.021Z,35.12
2022-08-14T13:51:59.903Z,35.09
2022-08-14T13:54:36.657Z,35.17
2022-08-14T13:57:08.867Z,35.05
2022-08-14T13:59:38.659Z,35.00
2022-08-14T14:02:10.005Z,35.03
2022-08-14T14:04:49.337Z,35.06
2022-08-14T14:07:23.411Z,35.14
2022-08-14T14:09:55.138Z,35.16
2022-08-14T14:12:37.690Z,35.02
2022-08-14T14:15:13.730Z,35.08
2022-08-14T14:17:48.224Z,35.03
2022-08-14T14:20:35.126Z,35.05
2022-08-14T14:23:09.764Z,35.08
2022-08-14T14:25:56.947Z,34.78
2022-08-14T14:28:31.682Z,34.70
2022-08-14T14:31:06.958Z,34.54
2022-08-14T14:33:51.881Z,34.58
2022-08-14T14:36:33.018Z,34.39
2022-08-14T14:39:09.251Z,34.15
2022-08-14T14:41:43.771Z,34.10
2022-08-14T14:44:15.992Z,34.00
2022-08-14T14:46:50.257Z,33.80
2022-08-14T14:49:31.800Z,33.87
2022-08-14T14:52:17.179Z,33.64
2022-08-14T14:54:51.241Z,33.67
2022-08-14T14:57:19.725Z,33.59
2022-08-14T14:59:49.971Z,33.43
2022-08-14T15:02:45.504Z,33.30
2022-08-14T15:05:16.284Z,33.39
2022-08-14T15:07:48.582Z,33.41
2022-08-14T15:10:27.394Z,33.36
2022-08-14T15:13:03.583Z,33.15
2022-08-14T15:15:32.605Z,33.09
2022-08-14T15:18:01.890Z,33.03
2022-08-14T15:20:30.239Z,32.99
2022-08-14T15:23:12.075Z,32.97
2022-08-14T15:25:52.345Z,33.04
2022-08-14T15:28:23.247Z,33.03
2022-08-14T15:30:57.873Z,33.12
2022-08-14T15:34:00.940Z,33.07
2022-08-14T15:36:37.209Z,32.75
2022-08-14T15:39:10.447Z,32.50
2022-08-14T15:41:41.516Z,32.56
2022-08-14T15:44:24.806Z,32.43
2022-08-14T15:46:58.262Z,32.28
2022-08-14T15:49:34.452Z,32.06
2022-08-14T15:52:03.556Z,32.30
2022-08-14T15:54:31.965Z,31.95
2022-08-14T15:57:08.511Z,32.23
2022-08-14T15:59:58.668Z,32.33
2022-08-14T16:02:31.256Z,32.61
2022-08-14T16:04:58.996Z,32.79
2022-08-14T16:07:29.913Z,32.96
2022-08-14T16:10:27.812Z,32.82
2022-08-14T16:12:47.590Z,32.82
2022-08-14T16:15:17.144Z,32.78
2022-08-14T16:17:45.971Z,32.71
2022-08-14T16:20:41.788Z,32.67
2022-08-14T16:23:10.748Z,32.85
2022-08-14T16:25:43.768Z,32.70
2022-08-14T16:28:27.217Z,32.35
2022-08-14T16:31:02.422Z,32.19
2022-08-14T16:33:59.880Z,32.22
2022-08-14T16:36:30.551Z,32.17
2022-08-14T16:39:02.335Z,32.09
2022-08-14T16:41:30.832Z,31.91
2022-08-14T16:44:23.164Z,31.79
2022-08-14T16:47:04.070Z,31.98
2022-08-14T16:49:50.559Z,32.13
2022-08-14T16:52:26.467Z,32.23
2022-08-14T16:55:12.181Z,32.06
2022-08-14T16:57:50.690Z,31.99
2022-08-14T17:00:43.878Z,31.80
2022-08-14T17:03:15.725Z,31.73
2022-08-14T17:05:47.139Z,31.64
2022-08-14T17:08:41.689Z,31.74
2022-08-14T17:11:11.020Z,31.48
2022-08-14T17:13:59.591Z,31.67
2022-08-14T17:16:32.270Z,31.50
2022-08-14T17:19:04.919Z,31.37
2022-08-14T17:21:40.910Z,31.38
2022-08-14T17:24:56.584Z,31.33
2022-08-14T17:27:18.166Z,31.31
2022-08-14T17:29:57.583Z,31.23
2022-08-14T17:32:55.423Z,31.32
2022-08-14T17:35:58.837Z,31.35
2022-08-14T17:38:33.333Z,31.17
2022-08-14T17:41:44.235Z,30.90
2022-08-14T17:44:22.278Z,30.71
2022-08-14T17:47:07.905Z,30.85
2022-08-14T17:49:45.085Z,30.71
2022-08-14T17:52:17.210Z,30.72
2022-08-14T17:54:52.775Z,30.74
2022-08-14T17:57:40.693Z,30.60
2022-08-14T18:00:16.728Z,30.67
2022-08-14T18:02:50.719Z,30.63
2022-08-14T18:05:22.881Z,30.66
2022-08-14T18:08:31.249Z,30.65
2022-08-14T18:10:55.134Z,30.61
2022-08-14T18:13:51.480Z,30.59
2022-08-14T18:16:19.933Z,30.65
2022-08-14T18:18:50.977Z,30.66
2022-08-14T18:21:42.925Z,30.68
2022-08-14T18:24:20.316Z,30.72
2022-08-14T18:27:09.128Z,30.69
2022-08-14T18:29:54.832Z,30.54
2022-08-14T18:32:33.306Z,30.66
2022-08-14T18:35:13.132Z,30.58
2022-08-14T18:37:55.743Z,30.60
2022-08-14T18:40:34.481Z,30.48
2022-08-14T18:43:03.501Z,30.40
2022-08-14T18:45:41.607Z,30.43
2022-08-14T18:48:22.913Z,30.40
2022-08-14T18:51:07.299Z,30.43
2022-08-14T18:53:54.232Z,30.46
2022-08-14T18:56:57.948Z,30.23
2022-08-14T18:59:42.402Z,30.21
2022-08-14T19:02:30.524Z,30.26
2022-08-14T19:05:02.474Z,30.22
2022-08-14T19:07:33.975Z,30.08
2022-08-14T19:10:16.784Z,30.17
2022-08-14T19:12:54.080Z,30.08
2022-08-14T19:15:34.870Z,29.93
2022-08-14T19:18:25.961Z,29.85
2022-08-14T19:20:56.892Z,29.76
2022-08-14T19:23:43.205Z,29.67
2022-08-14T19:26:33.834Z,29.49
2022-08-14T19:29:23.387Z,29.36
2022-08-14T19:31:55.891Z,29.29
2022-08-14T19:34:52.269Z,29.46
2022-08-14T19:37:52.447Z,29.38
2022-08-14T19:40:39.600Z,29.38
2022-08-14T19:43:09.218Z,29.38
2022-08-14T19:45:39.149Z,29.40
2022-08-14T19:48:14.728Z,29.37
2022-08-14T19:50:46.961Z,29.34
2022-08-14T19:53:17.032Z,29.36
2022-08-14T19:56:05.659Z,29.30
2022-08-14T19:58:54.175Z,29.11
2022-08-14T20:01:52.975Z,29.14
2022-08-14T20:05:14.058Z,29.19
2022-08-14T20:07:59.963Z,29.16
2022-08-14T20:11:06.338Z,29.16
2022-08-14T20:13:33.158Z,29.14
2022-08-14T20:16:21.287Z,29.22
2022-08-14T20:19:34.474Z,29.23
2022-08-14T20:22:36.702Z,29.26
2022-08-14T20:25:26.220Z,29.19
2022-08-14T20:28:00.517Z,29.26
2022-08-14T20:31:15.926Z,29.25
2022-08-14T20:34:35.591Z,29.29
2022-08-14T20:37:10.023Z,29.28
2022-08-14T20:39:43.587Z,29.25
2022-08-14T20:42:34.811Z,29.23
2022-08-14T20:45:18.535Z,29.22
2022-08-14T20:48:09.307Z,29.17
2022-08-14T20:50:45.129Z,29.09
2022-08-14T20:53:36.604Z,29.02
2022-08-14T20:56:28.369Z,29.03
2022-08-14T20:58:58.875Z,29.03
2022-08-14T21:01:33.096Z,29.04
2022-08-14T21:04:04.950Z,29.03
2022-08-14T21:07:23.307Z,29.02
2022-08-14T21:10:05.134Z,29.04
2022-08-14T21:12:34.767Z,29.00
2022-08-14T21:15:10.223Z,29.03
2022-08-14T21:17:41.629Z,29.02
2022-08-14T21:20:25.478Z,28.98
2022-08-14T21:22:56.594Z,28.94
2022-08-14T21:25:31.357Z,28.88
2022-08-14T21:28:08.898Z,28.96
2022-08-14T21:30:56.732Z,28.95
2022-08-14T21:33:25.330Z,28.92
2022-08-14T21:35:55.740Z,28.94
2022-08-14T21:38:31.283Z,28.83
2022-08-14T21:41:41.749Z,28.88
2022-08-14T21:44:17.372Z,28.86
2022-08-14T21:46:56.871Z,28.86
2022-08-14T21:49:37.608Z,28.85
2022-08-14T21:52:50.980Z,28.90
2022-08-14T21:55:08.572Z,28.93
2022-08-14T21:58:42.657Z,28.94
2022-08-14T22:00:35.923Z,28.96
2022-08-14T22:03:13.192Z,28.93
2022-08-14T22:05:56.462Z,28.97
2022-08-14T22:08:26.528Z,28.92
2022-08-14T22:10:55.536Z,28.88
2022-08-14T22:13:26.838Z,28.90
2022-08-14T22:16:01.898Z,28.89
2022-08-14T22:18:32.268Z,28.80
2022-08-14T22:21:05.956Z,28.76
2022-08-14T22:23:36.317Z,28.78
2022-08-14T22:26:08.277Z,28.74
2022-08-14T22:28:36.680Z,28.68
2022-08-14T22:31:10.238Z,28.66
2022-08-14T22:33:40.545Z,28.71
2022-08-14T22:36:34.177Z,28.72
2022-08-14T22:39:11.117Z,28.64
2022-08-14T22:41:42.159Z,28.66
2022-08-14T22:44:16.257Z,28.70
2022-08-14T22:46:48.354Z,28.71
2022-08-14T22:50:31.743Z,28.74
2022-08-14T22:52:32.121Z,28.66
2022-08-14T22:54:58.922Z,28.62
2022-08-14T22:57:37.122Z,28.54
2022-08-14T23:00:18.989Z,28.59
2022-08-14T23:02:48.626Z,28.53
2022-08-14T23:05:39.074Z,28.49
2022-08-14T23:08:57.599Z,28.39
2022-08-14T23:11:02.974Z,28.31
2022-08-14T23:13:32.744Z,28.33
2022-08-14T23:16:01.554Z,28.29
2022-08-14T23:18:30.047Z,28.31
2022-08-14T23:20:58.540Z,28.32
2022-08-14T23:23:27.716Z,28.26
2022-08-14T23:26:00.312Z,28.32
2022-08-14T23:28:57.139Z,28.35
2022-08-14T23:31:34.700Z,28.35
2022-08-14T23:34:09.370Z,28.18
2022-08-14T23:36:54.181Z,28.25
2022-08-14T23:39:31.678Z,28.19
2022-08-14T23:42:04.757Z,28.14
2022-08-14T23:44:37.135Z,28.17
2022-08-14T23:47:11.746Z,28.15
2022-08-14T23:49:59.899Z,28.02
2022-08-14T23:52:55.484Z,28.02
2022-08-14T23:55:22.540Z,28.01
2022-08-14T23:57:57.195Z,28.07
